createdAt,value
2023-01-11T00:02:57.680Z,7.96
2023-01-11T00:06:01.771Z,7.93
2023-01-11T00:09:07.109Z,7.95
2023-01-11T00:12:12.535Z,7.93
2023-01-11T00:15:16.839Z,7.84
2023-01-11T00:18:20.692Z,7.99
2023-01-11T00:21:24.466Z,7.99
2023-01-11T00:24:29.710Z,7.92
2023-01-11T00:27:33.779Z,7.87
2023-01-11T00:30:37.671Z,8.00
2023-01-11T00:33:41.240Z,7.95
2023-01-11T00:36:44.941Z,7.91
2023-01-11T00:39:50.347Z,7.89
2023-01-11T00:43:11.442Z,8.03
2023-01-11T00:46:32.283Z,8.07
2023-01-11T00:49:36.490Z,7.89
2023-01-11T00:52:40.177Z,7.97
2023-01-11T00:55:45.319Z,7.96
2023-01-11T00:58:49.156Z,7.82
2023-01-11T01:01:52.793Z,7.76
2023-01-11T01:04:57.003Z,7.95
2023-01-11T01:08:01.028Z,7.98
2023-01-11T01:11:06.162Z,7.83
2023-01-11T01:14:26.749Z,7.98
2023-01-11T01:17:30.496Z,7.99
2023-01-11T01:20:34.081Z,8.02
2023-01-11T01:23:37.793Z,8.08
2023-01-11T01:26:42.993Z,8.06
2023-01-11T01:29:46.541Z,8.08
2023-01-11T01:32:50.122Z,7.90
2023-01-11T01:35:53.791Z,7.95
2023-01-11T01:38:57.518Z,7.96
2023-01-11T01:42:02.617Z,7.92
2023-01-11T01:45:09.073Z,8.05
2023-01-11T01:48:16.679Z,8.09
2023-01-11T01:51:24.829Z,8.01
2023-01-11T01:54:34.859Z,7.96
2023-01-11T01:57:42.897Z,8.16
2023-01-11T02:00:48.180Z,8.13
2023-01-11T02:03:53.657Z,7.99
2023-01-11T02:07:01.052Z,8.01
2023-01-11T02:10:08.579Z,8.19
2023-01-11T02:13:14.661Z,7.99
2023-01-11T02:16:18.336Z,8.11
2023-01-11T02:19:37.249Z,7.94
2023-01-11T02:23:09.194Z,7.88
2023-01-11T02:26:56.081Z,8.00
2023-01-11T02:30:10.483Z,7.95
2023-01-11T02:33:24.598Z,7.77
2023-01-11T02:36:34.921Z,7.93
2023-01-11T02:39:46.460Z,8.07
2023-01-11T02:43:11.570Z,8.07
2023-01-11T02:46:23.495Z,7.97
2023-01-11T02:49:35.919Z,8.13
2023-01-11T02:52:47.883Z,8.08
2023-01-11T02:55:57.289Z,7.94
2023-01-11T02:59:01.881Z,7.99
2023-01-11T03:02:07.158Z,8.06
2023-01-11T03:05:15.876Z,7.89
2023-01-11T03:08:53.092Z,8.01
2023-01-11T03:12:29.919Z,8.11
2023-01-11T03:15:51.125Z,8.16
2023-01-11T03:19:07.908Z,8.07
2023-01-11T03:22:20.071Z,8.21
2023-01-11T03:25:32.285Z,8.09
2023-01-11T03:28:42.920Z,7.93
2023-01-11T03:31:53.663Z,8.11
2023-01-11T03:35:14.715Z,7.99
2023-01-11T03:38:24.277Z,8.18
2023-01-11T03:41:31.284Z,8.32
2023-01-11T03:44:44.491Z,8.25
2023-01-11T03:47:48.234Z,8.38
2023-01-11T03:50:56.861Z,8.11
2023-01-11T03:54:02.257Z,8.02
2023-01-11T03:57:12.103Z,7.97
2023-01-11T04:00:16.412Z,8.05
2023-01-11T04:03:20.055Z,7.82
2023-01-11T04:06:26.231Z,7.81
2023-01-11T04:09:29.911Z,7.91
2023-01-11T04:12:33.594Z,7.93
2023-01-11T04:15:37.143Z,7.89
2023-01-11T04:18:41.438Z,7.83
2023-01-11T04:21:46.574Z,7.90
2023-01-11T04:24:50.371Z,7.85
2023-01-11T04:27:54.032Z,7.78
2023-01-11T04:30:57.683Z,7.82
2023-01-11T04:34:03.228Z,7.75
2023-01-11T04:37:08.438Z,7.82
2023-01-11T04:40:13.321Z,7.87
2023-01-11T04:43:15.882Z,7.72
2023-01-11T04:46:19.652Z,7.57
2023-01-11T04:49:23.153Z,7.61
2023-01-11T04:52:28.315Z,7.58
2023-01-11T04:55:32.153Z,7.65
2023-01-11T04:58:38.261Z,7.69
2023-01-11T05:01:42.040Z,7.82
2023-01-11T05:04:45.830Z,7.66
2023-01-11T05:07:51.586Z,7.59
2023-01-11T05:10:55.260Z,7.57
2023-01-11T05:14:00.258Z,7.72
2023-01-11T05:17:04.002Z,7.77
2023-01-11T05:20:08.482Z,7.74
2023-01-11T05:23:13.736Z,7.78
2023-01-11T05:26:19.585Z,7.73
2023-01-11T05:29:23.242Z,7.57
2023-01-11T05:32:26.982Z,7.43
2023-01-11T05:35:30.720Z,7.63
2023-01-11T05:38:36.129Z,7.77
2023-01-11T05:41:40.072Z,7.64
2023-01-11T05:45:01.130Z,7.51
2023-01-11T05:48:05.318Z,7.40
2023-01-11T05:51:09.098Z,7.69
2023-01-11T05:54:16.329Z,7.67
2023-01-11T05:57:20.188Z,7.44
2023-01-11T06:00:25.016Z,7.48
2023-01-11T06:03:28.889Z,7.58
2023-01-11T06:06:32.712Z,7.55
2023-01-11T06:09:38.074Z,7.62
2023-01-11T06:12:41.872Z,7.49
2023-01-11T06:15:45.603Z,7.60
2023-01-11T06:18:51.469Z,7.56
2023-01-11T06:21:55.467Z,7.66
2023-01-11T06:25:00.687Z,7.59
2023-01-11T06:28:04.981Z,7.73
2023-01-11T06:31:09.418Z,7.64
2023-01-11T06:34:13.351Z,7.68
2023-01-11T06:37:17.091Z,7.59
2023-01-11T06:40:22.552Z,7.57
2023-01-11T06:43:27.120Z,7.73
2023-01-11T06:46:30.924Z,7.58
2023-01-11T06:49:34.660Z,7.55
2023-01-11T06:52:38.521Z,7.63
2023-01-11T06:55:43.791Z,7.57
2023-01-11T06:58:48.671Z,7.90
2023-01-11T07:01:52.714Z,7.96
2023-01-11T07:04:56.525Z,7.94
2023-01-11T07:08:00.443Z,7.98
2023-01-11T07:11:05.785Z,7.98
2023-01-11T07:14:09.870Z,7.82
2023-01-11T07:17:13.783Z,8.04
2023-01-11T07:20:18.111Z,7.99
2023-01-11T07:23:21.931Z,7.99
2023-01-11T07:26:28.547Z,8.10
2023-01-11T07:29:32.431Z,8.11
2023-01-11T07:32:36.761Z,8.19
2023-01-11T07:35:40.654Z,8.35
2023-01-11T07:38:44.482Z,8.73
2023-01-11T07:42:03.533Z,8.73
2023-01-11T07:45:08.326Z,8.95
2023-01-11T07:48:12.746Z,8.90
2023-01-11T07:51:20.769Z,8.94
2023-01-11T07:54:25.063Z,8.78
2023-01-11T07:57:30.551Z,9.46
2023-01-11T08:00:34.455Z,9.62
2023-01-11T08:03:38.360Z,9.63
2023-01-11T08:06:42.979Z,10.14
2023-01-11T08:09:46.830Z,10.07
2023-01-11T08:13:09.766Z,10.12
2023-01-11T08:16:13.576Z,10.29
2023-01-11T08:19:17.348Z,9.93
2023-01-11T08:22:21.141Z,10.08
2023-01-11T08:25:25.454Z,10.45
2023-01-11T08:28:30.711Z,10.77
2023-01-11T08:31:34.431Z,11.22
2023-01-11T08:34:39.156Z,10.95
2023-01-11T08:37:42.871Z,11.18
2023-01-11T08:40:46.724Z,11.00
2023-01-11T08:43:52.049Z,10.90
2023-01-11T08:46:55.924Z,10.51
2023-01-11T08:49:59.851Z,10.13
2023-01-11T08:53:03.642Z,10.27
2023-01-11T08:56:08.342Z,10.21
2023-01-11T08:59:13.901Z,10.35
2023-01-11T09:02:18.044Z,10.40
2023-01-11T09:05:22.612Z,10.38
2023-01-11T09:08:27.226Z,10.21
2023-01-11T09:11:48.432Z,10.22
2023-01-11T09:14:53.660Z,10.06
2023-01-11T09:17:58.012Z,10.17
2023-01-11T09:21:01.821Z,10.12
2023-01-11T09:24:06.172Z,10.16
2023-01-11T09:27:11.843Z,10.32
2023-01-11T09:30:20.702Z,10.44
2023-01-11T09:33:24.728Z,10.32
2023-01-11T09:36:29.325Z,10.47
2023-01-11T09:39:34.324Z,10.40
2023-01-11T09:42:41.158Z,10.61
2023-01-11T09:45:51.271Z,10.84
2023-01-11T09:48:59.937Z,10.97
2023-01-11T09:52:17.302Z,10.81
2023-01-11T09:55:28.902Z,10.89
2023-01-11T09:58:46.879Z,10.93
2023-01-11T10:02:01.728Z,10.88
2023-01-11T10:05:38.705Z,10.76
2023-01-11T10:18:25.684Z,10.76
2023-01-11T10:19:42.509Z,10.84
2023-01-11T10:22:49.908Z,10.85
2023-01-11T10:25:58.981Z,10.81
2023-01-11T10:29:30.338Z,10.67
2023-01-11T10:32:54.360Z,10.75
2023-01-11T10:36:19.277Z,10.70
2023-01-11T10:39:50.811Z,11.21
2023-01-11T10:43:03.576Z,11.30
2023-01-11T10:46:11.515Z,11.85
2023-01-11T10:49:30.542Z,12.18
2023-01-11T10:52:41.979Z,12.20
2023-01-11T10:55:53.442Z,12.46
2023-01-11T10:59:13.496Z,12.38
2023-01-11T11:02:30.140Z,12.30
2023-01-11T11:05:43.953Z,12.18
2023-01-11T11:08:59.231Z,12.03
2023-01-11T11:12:10.091Z,11.75
2023-01-11T11:15:23.543Z,11.78
2023-01-11T11:18:27.321Z,11.24
2023-01-11T11:21:39.543Z,11.38
2023-01-11T11:24:48.833Z,11.57
2023-01-11T11:27:57.261Z,11.65
2023-01-11T11:31:04.432Z,11.52
2023-01-11T11:34:10.492Z,11.48
2023-01-11T11:37:25.851Z,11.53
2023-01-11T11:40:34.091Z,11.38
2023-01-11T11:43:38.925Z,11.63
2023-01-11T11:46:43.123Z,11.84
2023-01-11T11:49:47.769Z,11.77
2023-01-11T11:52:53.747Z,11.60
2023-01-11T11:55:59.601Z,11.82
2023-01-11T11:59:10.056Z,11.61
2023-01-11T12:02:25.620Z,11.80
2023-01-11T12:05:29.973Z,11.86
2023-01-11T12:08:36.919Z,11.77
2023-01-11T12:11:43.551Z,11.97
2023-01-11T12:15:08.261Z,11.89
2023-01-11T12:18:27.567Z,11.91
2023-01-11T12:21:31.643Z,11.83
2023-01-11T12:24:35.512Z,11.50
2023-01-11T12:27:48.461Z,11.50
2023-01-11T12:31:00.064Z,11.49
2023-01-11T12:34:18.050Z,11.33
2023-01-11T12:37:34.438Z,11.40
2023-01-11T12:40:45.331Z,11.62
2023-01-11T12:44:03.092Z,11.54
2023-01-11T12:47:27.194Z,11.51
2023-01-11T12:50:36.902Z,11.64
2023-01-11T12:54:20.243Z,11.82
2023-01-11T12:57:30.540Z,11.77
2023-01-11T13:00:57.300Z,11.64
2023-01-11T13:04:34.536Z,11.77
2023-01-11T13:07:56.140Z,11.76
2023-01-11T13:11:09.835Z,11.78
2023-01-11T13:14:40.492Z,11.85
2023-01-11T13:17:52.635Z,12.01
2023-01-11T13:21:03.303Z,12.02
2023-01-11T13:24:13.951Z,12.03
2023-01-11T13:27:22.651Z,12.02
2023-01-11T13:30:27.990Z,11.88
2023-01-11T13:33:34.067Z,11.93
2023-01-11T13:36:45.797Z,11.66
2023-01-11T13:39:55.641Z,11.56
2023-01-11T13:43:05.486Z,11.47
2023-01-11T13:46:17.696Z,11.56
2023-01-11T13:49:45.182Z,11.48
2023-01-11T13:53:00.256Z,11.58
2023-01-11T13:56:13.829Z,11.57
2023-01-11T13:59:26.916Z,11.47
2023-01-11T14:02:40.820Z,11.34
2023-01-11T14:05:55.462Z,11.46
2023-01-11T14:09:32.400Z,11.44
2023-01-11T14:12:52.054Z,11.45
2023-01-11T14:16:01.323Z,11.39
2023-01-11T14:19:12.379Z,11.42
2023-01-11T14:22:26.070Z,11.30
2023-01-11T14:25:37.141Z,11.23
2023-01-11T14:28:51.767Z,11.28
2023-01-11T14:32:20.170Z,11.28
2023-01-11T14:35:59.130Z,11.20
2023-01-11T14:39:23.890Z,11.34
2023-01-11T14:42:59.068Z,11.25
2023-01-11T14:46:51.030Z,11.33
2023-01-11T14:50:12.523Z,11.19
2023-01-11T14:53:21.830Z,11.02
2023-01-11T14:56:49.065Z,11.16
2023-01-11T14:59:54.331Z,11.11
2023-01-11T15:03:31.150Z,11.12
2023-01-11T15:06:54.439Z,11.21
2023-01-11T15:10:00.308Z,11.12
2023-01-11T15:13:07.930Z,10.99
2023-01-11T15:16:39.892Z,10.92
2023-01-11T15:19:45.359Z,10.88
2023-01-11T15:22:57.520Z,10.92
2023-01-11T15:26:03.455Z,10.87
2023-01-11T15:29:07.148Z,10.91
2023-01-11T15:32:20.509Z,10.87
2023-01-11T15:35:42.372Z,10.77
2023-01-11T15:38:53.892Z,10.57
2023-01-11T15:42:23.933Z,10.55
2023-01-11T15:46:19.437Z,10.59
2023-01-11T15:50:17.765Z,10.58
2023-01-11T15:53:51.715Z,10.48
2023-01-11T15:57:15.886Z,10.24
2023-01-11T16:00:44.115Z,10.41
2023-01-11T16:04:05.484Z,10.45
2023-01-11T16:07:19.609Z,10.41
2023-01-11T16:10:46.633Z,10.39
2023-01-11T16:14:04.179Z,10.32
2023-01-11T16:17:13.583Z,10.49
2023-01-11T16:20:25.788Z,10.43
2023-01-11T16:23:33.097Z,10.26
2023-01-11T16:26:39.422Z,10.33
2023-01-11T16:29:43.150Z,10.50
2023-01-11T16:32:46.852Z,10.48
2023-01-11T16:35:50.854Z,10.32
2023-01-11T16:39:02.886Z,10.39
2023-01-11T16:42:08.196Z,10.18
2023-01-11T16:45:16.600Z,10.43
2023-01-11T16:48:21.955Z,10.13
2023-01-11T16:51:25.637Z,10.22
2023-01-11T16:54:33.733Z,10.27
2023-01-11T16:57:42.136Z,10.29
2023-01-11T17:00:58.986Z,10.27
2023-01-11T17:04:04.959Z,10.40
2023-01-11T17:07:14.751Z,10.09
2023-01-11T17:10:24.981Z,10.38
2023-01-11T17:14:01.971Z,10.21
2023-01-11T17:17:08.433Z,10.30
2023-01-11T17:20:20.119Z,10.26
2023-01-11T17:23:23.931Z,10.12
2023-01-11T17:26:32.341Z,9.89
2023-01-11T17:29:39.527Z,10.03
2023-01-11T17:32:45.792Z,10.01
2023-01-11T17:35:49.538Z,10.01
2023-01-11T17:38:55.689Z,9.91
2023-01-11T17:42:19.861Z,9.92
2023-01-11T17:45:26.441Z,9.88
2023-01-11T17:48:31.202Z,9.87
2023-01-11T17:51:36.453Z,9.91
2023-01-11T17:54:40.389Z,9.82
2023-01-11T17:57:46.232Z,9.73
2023-01-11T18:01:19.694Z,9.55
2023-01-11T18:04:24.555Z,9.61
2023-01-11T18:07:28.321Z,9.72
2023-01-11T18:10:37.522Z,9.81
2023-01-11T18:13:43.006Z,9.70
2023-01-11T18:16:58.220Z,9.91
2023-01-11T18:20:03.162Z,9.78
2023-01-11T18:23:20.060Z,9.72
2023-01-11T18:26:32.153Z,9.63
2023-01-11T18:29:53.539Z,9.50
2023-01-11T18:32:57.730Z,9.60
2023-01-11T18:36:03.371Z,9.58
2023-01-11T18:39:11.880Z,9.65
2023-01-11T18:42:19.402Z,9.48
2023-01-11T18:45:25.138Z,9.44
2023-01-11T18:48:28.757Z,9.49
2023-01-11T18:51:37.352Z,9.55
2023-01-11T18:54:41.363Z,9.66
2023-01-11T18:57:45.101Z,9.61
2023-01-11T19:00:50.301Z,9.65
2023-01-11T19:03:54.070Z,9.67
2023-01-11T19:06:57.843Z,9.59
2023-01-11T19:10:01.583Z,9.41
2023-01-11T19:13:05.290Z,9.42
2023-01-11T19:16:11.113Z,9.39
2023-01-11T19:19:15.083Z,9.44
2023-01-11T19:22:18.831Z,9.31
2023-01-11T19:25:22.858Z,9.50
2023-01-11T19:28:26.441Z,9.41
2023-01-11T19:31:31.907Z,9.05
2023-01-11T19:34:35.891Z,9.21
2023-01-11T19:37:39.921Z,9.32
2023-01-11T19:40:43.582Z,9.34
2023-01-11T19:43:47.468Z,9.22
2023-01-11T19:47:00.446Z,9.36
2023-01-11T19:50:13.231Z,9.34
2023-01-11T19:53:17.012Z,9.22
2023-01-11T19:56:20.810Z,9.17
2023-01-11T19:59:24.484Z,9.20
2023-01-11T20:02:29.655Z,9.27
2023-01-11T20:05:33.861Z,9.33
2023-01-11T20:08:38.698Z,9.04
2023-01-11T20:11:42.404Z,9.14
2023-01-11T20:14:46.533Z,9.20
2023-01-11T20:17:51.650Z,9.29
2023-01-11T20:20:58.423Z,9.24
2023-01-11T20:24:02.623Z,8.99
2023-01-11T20:27:06.415Z,9.18
2023-01-11T20:30:11.699Z,9.30
2023-01-11T20:33:16.828Z,9.41
2023-01-11T20:36:20.677Z,9.27
2023-01-11T20:39:25.649Z,9.21
2023-01-11T20:42:29.320Z,9.01
2023-01-11T20:45:33.020Z,8.99
2023-01-11T20:48:38.044Z,9.25
2023-01-11T20:51:42.901Z,9.34
2023-01-11T20:54:46.641Z,9.02
2023-01-11T20:57:51.590Z,8.81
2023-01-11T21:00:55.286Z,8.73
2023-01-11T21:04:02.447Z,8.75
2023-01-11T21:07:06.285Z,8.57
2023-01-11T21:10:10.997Z,8.57
2023-01-11T21:13:14.789Z,8.58
2023-01-11T21:16:18.830Z,8.76
2023-01-11T21:19:24.365Z,8.81
2023-01-11T21:22:28.701Z,8.84
2023-01-11T21:25:35.290Z,8.80
2023-01-11T21:28:39.621Z,8.68
2023-01-11T21:31:43.377Z,8.75
2023-01-11T21:34:48.639Z,8.71
2023-01-11T21:37:52.431Z,8.87
2023-01-11T21:40:56.019Z,8.85
2023-01-11T21:43:59.761Z,8.89
2023-01-11T21:47:04.695Z,8.93
2023-01-11T21:50:11.791Z,8.75
2023-01-11T21:53:15.499Z,8.66
2023-01-11T21:56:19.124Z,8.76
2023-01-11T21:59:23.417Z,8.83
2023-01-11T22:02:27.110Z,8.67
2023-01-11T22:05:32.370Z,8.94
2023-01-11T22:08:37.080Z,8.91
2023-01-11T22:11:41.226Z,8.85
2023-01-11T22:14:45.849Z,8.75
2023-01-11T22:17:49.581Z,8.80
2023-01-11T22:20:54.958Z,8.88
2023-01-11T22:24:00.629Z,8.68
2023-01-11T22:27:04.459Z,8.80
2023-01-11T22:30:09.523Z,8.62
2023-01-11T22:33:13.313Z,8.70
2023-01-11T22:36:19.039Z,8.65
2023-01-11T22:39:24.270Z,8.66
2023-01-11T22:42:28.010Z,8.81
2023-01-11T22:45:31.749Z,8.71
2023-01-11T22:48:35.650Z,8.78
2023-01-11T22:51:41.992Z,8.68
2023-01-11T22:54:45.730Z,8.75
2023-01-11T22:57:49.468Z,8.79
2023-01-11T23:00:53.180Z,8.76
2023-01-11T23:03:57.936Z,8.80
2023-01-11T23:07:03.224Z,8.63
2023-01-11T23:10:08.835Z,8.73
2023-01-11T23:13:30.013Z,8.88
2023-01-11T23:16:34.484Z,8.65
2023-01-11T23:19:40.483Z,8.82
2023-01-11T23:22:45.665Z,8.70
2023-01-11T23:25:49.406Z,8.81
2023-01-11T23:28:53.226Z,8.88
2023-01-11T23:31:57.101Z,8.98
2023-01-11T23:35:00.889Z,8.64
2023-01-11T23:38:06.066Z,8.89
2023-01-11T23:41:27.974Z,8.92
2023-01-11T23:44:31.916Z,8.92
2023-01-11T23:47:35.566Z,8.78
2023-01-11T23:50:39.265Z,9.03
2023-01-11T23:53:44.491Z,9.07
2023-01-11T23:56:48.325Z,9.09
2023-01-11T23:59:52.230Z,9.17
